createdAt,value
2018-08-22T00:00:16.895Z,99264.97
2018-08-22T00:02:45.237Z,99261.47
2018-08-22T00:05:13.517Z,99259.16
2018-08-22T00:07:41.930Z,99262.61
2018-08-22T00:10:10.303Z,99259.33
2018-08-22T00:12:38.622Z,99254.53
2018-08-22T00:15:06.921Z,99256.45
2018-08-22T00:17:35.234Z,99253.65
2018-08-22T00:20:03.540Z,99262.05
2018-08-22T00:22:31.950Z,99253.02
2018-08-22T00:25:00.231Z,99252.81
2018-08-22T00:27:28.731Z,99255.26
2018-08-22T00:29:57.007Z,99247.59
2018-08-22T00:32:25.286Z,99251.92
2018-08-22T00:34:53.614Z,99242.44
2018-08-22T00:37:22.177Z,99238.22
2018-08-22T00:39:50.526Z,99240.80
2018-08-22T00:42:18.807Z,99236.80
2018-08-22T00:44:47.335Z,99237.61
2018-08-22T00:47:15.686Z,99240.63
2018-08-22T00:49:44.010Z,99237.39
2018-08-22T00:52:12.306Z,99238.10
2018-08-22T00:54:40.741Z,99236.41
2018-08-22T00:57:09.082Z,99234.20
2018-08-22T00:59:37.499Z,99230.98
2018-08-22T01:02:05.796Z,99235.47
2018-08-22T01:04:34.107Z,99235.22
2018-08-22T01:07:02.427Z,99228.63
2018-08-22T01:09:30.814Z,99226.84
2018-08-22T01:11:59.098Z,99224.48
2018-08-22T01:14:27.423Z,99226.44
2018-08-22T01:16:55.778Z,99220.05
2018-08-22T01:19:24.059Z,99220.14
2018-08-22T01:21:52.405Z,99224.86
2018-08-22T01:24:20.731Z,99223.92
2018-08-22T01:26:49.071Z,99218.37
2018-08-22T01:29:17.408Z,99222.73
2018-08-22T01:31:45.709Z,99218.74
2018-08-22T01:34:14.038Z,99221.16
2018-08-22T01:36:42.494Z,99219.74
2018-08-22T01:39:10.777Z,99215.18
2018-08-22T01:41:39.103Z,99216.59
2018-08-22T01:44:07.378Z,99216.95
2018-08-22T01:46:35.821Z,99215.42
2018-08-22T01:49:04.102Z,99213.48
2018-08-22T01:51:32.439Z,99210.88
2018-08-22T01:54:00.751Z,99215.52
2018-08-22T01:56:29.074Z,99215.83
2018-08-22T01:58:57.652Z,99219.55
2018-08-22T02:01:25.972Z,99222.39
2018-08-22T02:03:54.486Z,99214.66
2018-08-22T02:06:22.815Z,99210.00
2018-08-22T02:08:51.105Z,99211.08
2018-08-22T02:11:19.382Z,99210.51
2018-08-22T02:13:47.715Z,99211.16
2018-08-22T02:16:16.014Z,99203.13
2018-08-22T02:18:44.371Z,99203.80
2018-08-22T02:21:12.691Z,99203.52
2018-08-22T02:23:40.969Z,99200.34
2018-08-22T02:26:09.522Z,99195.20
2018-08-22T02:28:37.856Z,99200.11
2018-08-22T02:31:06.170Z,99198.47
2018-08-22T02:33:34.523Z,99200.61
2018-08-22T02:36:02.916Z,99195.66
2018-08-22T02:38:31.659Z,99193.86
2018-08-22T02:40:59.967Z,99194.27
2018-08-22T02:43:28.254Z,99196.58
2018-08-22T02:45:56.608Z,99197.12
2018-08-22T02:48:24.957Z,99191.78
2018-08-22T02:50:53.233Z,99195.80
2018-08-22T02:53:21.512Z,99191.09
2018-08-22T02:55:49.805Z,99185.23
2018-08-22T02:58:18.235Z,99184.08
2018-08-22T03:00:46.543Z,99178.02
2018-08-22T03:03:14.900Z,99185.56
2018-08-22T03:05:43.344Z,99185.43
2018-08-22T03:08:11.676Z,99184.69
2018-08-22T03:10:40.055Z,99183.26
2018-08-22T03:13:08.349Z,99182.10
2018-08-22T03:15:36.668Z,99186.75
2018-08-22T03:18:05.017Z,99186.23
2018-08-22T03:20:33.273Z,99185.54
2018-08-22T03:23:01.587Z,99181.20
2018-08-22T03:25:29.929Z,99180.31
2018-08-22T03:27:58.246Z,99178.20
2018-08-22T03:30:45.617Z,99177.83
2018-08-22T03:33:24.926Z,99180.86
2018-08-22T03:36:03.216Z,99171.75
2018-08-22T03:38:31.578Z,99168.97
2018-08-22T03:40:59.997Z,99174.12
2018-08-22T03:43:28.326Z,99176.20
2018-08-22T03:45:56.672Z,99180.72
2018-08-22T03:48:25.008Z,99175.66
2018-08-22T03:50:53.377Z,99178.24
2018-08-22T03:53:22.026Z,99181.82
2018-08-22T03:55:50.370Z,99180.72
2018-08-22T03:58:18.715Z,99177.45
2018-08-22T04:00:47.039Z,99181.11
2018-08-22T04:03:15.378Z,99182.99
2018-08-22T04:05:43.884Z,99185.98
2018-08-22T04:08:12.185Z,99186.77
2018-08-22T04:10:40.501Z,99180.67
2018-08-22T04:13:08.788Z,99187.65
2018-08-22T04:15:37.236Z,99191.10
2018-08-22T04:18:05.699Z,99193.31
2018-08-22T04:20:34.246Z,99185.81
2018-08-22T04:23:02.632Z,99184.49
2018-08-22T04:25:30.961Z,99187.23
2018-08-22T04:27:59.256Z,99184.47
2018-08-22T04:30:28.324Z,99183.48
2018-08-22T04:32:56.641Z,99178.02
2018-08-22T04:35:24.983Z,99188.70
2018-08-22T04:37:53.362Z,99182.72
2018-08-22T04:40:21.843Z,99183.13
2018-08-22T04:42:50.223Z,99186.03
2018-08-22T04:45:18.621Z,99177.28
2018-08-22T04:47:46.916Z,99185.24
2018-08-22T04:50:15.185Z,99188.31
2018-08-22T04:52:43.523Z,99187.87
2018-08-22T04:55:11.817Z,99184.81
2018-08-22T04:57:40.269Z,99180.81
2018-08-22T05:00:10.183Z,99189.25
2018-08-22T05:02:38.974Z,99191.69
2018-08-22T05:05:07.695Z,99189.27
2018-08-22T05:07:36.046Z,99189.10
2018-08-22T05:10:04.449Z,99186.22
2018-08-22T05:12:33.082Z,99186.34
2018-08-22T05:15:01.409Z,99184.40
2018-08-22T05:17:29.927Z,99183.94
2018-08-22T05:19:58.270Z,99183.13
2018-08-22T05:22:26.634Z,99180.79
2018-08-22T05:24:55.116Z,99180.43
2018-08-22T05:27:23.523Z,99182.30
2018-08-22T05:29:52.237Z,99179.97
2018-08-22T05:32:20.549Z,99177.75
2018-08-22T05:34:48.832Z,99176.94
2018-08-22T05:37:17.208Z,99169.09
2018-08-22T05:39:45.486Z,99173.59
2018-08-22T05:42:13.786Z,99176.31
2018-08-22T05:44:42.046Z,99167.22
2018-08-22T05:47:10.350Z,99171.17
2018-08-22T05:49:38.779Z,99165.81
2018-08-22T05:52:07.087Z,99156.46
2018-08-22T05:54:35.402Z,99155.20
2018-08-22T05:57:03.694Z,99154.97
2018-08-22T05:59:31.962Z,99162.61
2018-08-22T06:02:00.752Z,99159.43
2018-08-22T06:04:29.080Z,99159.56
2018-08-22T06:06:57.508Z,99155.59
2018-08-22T06:09:25.834Z,99164.73
2018-08-22T06:11:54.372Z,99158.23
2018-08-22T06:14:22.903Z,99155.37
2018-08-22T06:16:51.218Z,99153.02
2018-08-22T06:19:19.528Z,99153.21
2018-08-22T06:21:47.856Z,99152.69
2018-08-22T06:24:16.509Z,99154.06
2018-08-22T06:26:44.844Z,99152.38
2018-08-22T06:29:13.453Z,99157.25
2018-08-22T06:31:41.910Z,99160.30
2018-08-22T06:34:10.271Z,99160.62
2018-08-22T06:36:38.585Z,99157.09
2018-08-22T06:39:08.750Z,99150.67
2018-08-22T06:41:37.354Z,99157.42
2018-08-22T06:44:05.842Z,99147.60
2018-08-22T06:46:34.277Z,99151.30
2018-08-22T06:49:02.621Z,99151.47
2018-08-22T06:51:31.026Z,99144.22
2018-08-22T06:53:59.302Z,99146.75
2018-08-22T06:56:27.699Z,99146.55
2018-08-22T06:58:56.053Z,99145.84
2018-08-22T07:01:24.340Z,99139.87
2018-08-22T07:03:52.668Z,99136.14
2018-08-22T07:06:21.136Z,99138.97
2018-08-22T07:08:49.633Z,99138.88
2018-08-22T07:11:17.945Z,99140.47
2018-08-22T07:13:46.460Z,99137.91
2018-08-22T07:16:14.903Z,99135.35
2018-08-22T07:18:43.345Z,99128.23
2018-08-22T07:21:11.648Z,99123.95
2018-08-22T07:23:39.940Z,99120.13
2018-08-22T07:26:08.211Z,99119.21
2018-08-22T07:28:36.611Z,99117.20
2018-08-22T07:31:05.225Z,99114.72
2018-08-22T07:33:33.540Z,99118.73
2018-08-22T07:36:01.837Z,99120.44
2018-08-22T07:38:30.122Z,99118.70
2018-08-22T07:40:58.379Z,99118.67
2018-08-22T07:43:26.681Z,99113.72
2018-08-22T07:45:57.822Z,99117.02
2018-08-22T07:48:26.127Z,99119.07
2018-08-22T07:50:54.579Z,99115.08
2018-08-22T07:53:22.891Z,99116.54
2018-08-22T07:55:51.294Z,99116.61
2018-08-22T07:58:19.622Z,99112.97
2018-08-22T08:00:47.866Z,99116.58
2018-08-22T08:03:16.274Z,99114.51
2018-08-22T08:05:44.660Z,99118.27
2018-08-22T08:08:12.960Z,99118.59
2018-08-22T08:10:41.410Z,99116.92
2018-08-22T08:13:15.399Z,99107.55
2018-08-22T08:15:43.678Z,99105.73
2018-08-22T08:18:11.981Z,99106.77
2018-08-22T08:20:40.450Z,99109.04
2018-08-22T08:23:08.726Z,99102.86
2018-08-22T08:25:37.059Z,99103.70
2018-08-22T08:28:05.553Z,99098.84
2018-08-22T08:30:33.952Z,99091.34
2018-08-22T08:33:02.183Z,99094.04
2018-08-22T08:35:30.584Z,99093.84
2018-08-22T08:37:58.865Z,99090.52
2018-08-22T08:40:27.146Z,99088.26
2018-08-22T08:42:55.400Z,99082.66
2018-08-22T08:45:23.788Z,99080.63
2018-08-22T08:47:52.147Z,99080.95
2018-08-22T08:50:20.511Z,99081.89
2018-08-22T08:52:48.774Z,99077.49
2018-08-22T08:55:17.085Z,99075.98
2018-08-22T08:57:45.390Z,99073.19
2018-08-22T09:00:13.752Z,99069.33
2018-08-22T09:02:42.108Z,99059.62
2018-08-22T09:05:10.758Z,99063.60
2018-08-22T09:07:39.083Z,99056.61
2018-08-22T09:10:07.487Z,99051.52
2018-08-22T09:12:37.723Z,99054.98
2018-08-22T09:15:07.159Z,99051.39
2018-08-22T09:17:35.667Z,99046.47
2018-08-22T09:20:04.318Z,99041.44
2018-08-22T09:22:33.292Z,99045.57
2018-08-22T09:25:01.680Z,99039.29
2018-08-22T09:27:30.090Z,99037.36
2018-08-22T09:29:58.885Z,99032.13
2018-08-22T09:32:27.207Z,99031.34
2018-08-22T09:34:55.646Z,99025.45
2018-08-22T09:37:24.090Z,99027.95
2018-08-22T09:39:52.969Z,99017.73
2018-08-22T09:42:21.385Z,99021.56
2018-08-22T09:44:49.856Z,99013.75
2018-08-22T09:47:18.123Z,99010.14
2018-08-22T09:49:46.476Z,99005.38
2018-08-22T09:52:14.881Z,99010.08
2018-08-22T09:54:55.029Z,99011.00
2018-08-22T09:57:24.822Z,98999.34
2018-08-22T09:59:53.345Z,98998.34
2018-08-22T10:02:21.814Z,98994.03
2018-08-22T10:04:50.421Z,98994.99
2018-08-22T10:07:21.851Z,98994.83
2018-08-22T10:09:50.379Z,98991.23
2018-08-22T10:12:18.725Z,98986.48
2018-08-22T10:14:47.221Z,98984.99
2018-08-22T10:17:15.585Z,98979.02
2018-08-22T10:19:43.980Z,98972.42
2018-08-22T10:22:12.304Z,98973.79
2018-08-22T10:24:40.631Z,98968.86
2018-08-22T10:27:09.036Z,98970.06
2018-08-22T10:29:37.226Z,98971.82
2018-08-22T10:32:05.514Z,98961.94
2018-08-22T10:34:34.167Z,98963.28
2018-08-22T10:37:02.495Z,98965.65
2018-08-22T10:39:30.868Z,98957.01
2018-08-22T10:41:59.290Z,98962.84
2018-08-22T10:44:27.611Z,98952.57
2018-08-22T10:46:55.922Z,98953.05
2018-08-22T10:49:24.325Z,98955.27
2018-08-22T10:51:52.634Z,98947.98
2018-08-22T10:54:21.024Z,98948.28
2018-08-22T10:56:49.326Z,98948.91
2018-08-22T10:59:17.586Z,98940.64
2018-08-22T11:01:45.874Z,98944.41
2018-08-22T11:04:14.379Z,98946.23
2018-08-22T11:06:42.686Z,98943.91
2018-08-22T11:09:11.732Z,98934.20
2018-08-22T11:11:40.096Z,98944.61
2018-08-22T11:14:08.708Z,98936.52
2018-08-22T11:16:37.903Z,98933.48
2018-08-22T11:19:06.329Z,98932.37
2018-08-22T11:21:45.939Z,98927.97
2018-08-22T11:24:26.082Z,98924.63
2018-08-22T11:27:05.715Z,98927.72
2018-08-22T11:29:45.335Z,98929.90
2018-08-22T11:32:24.894Z,98921.28
2018-08-22T11:34:52.683Z,98920.88
2018-08-22T11:37:20.980Z,98915.21
2018-08-22T11:39:50.542Z,98913.06
2018-08-22T11:42:19.047Z,98908.66
2018-08-22T11:44:47.302Z,98905.94
2018-08-22T11:47:15.611Z,98899.21
2018-08-22T11:49:43.973Z,98902.94
2018-08-22T11:52:12.251Z,98904.02
2018-08-22T11:54:40.523Z,98906.34
2018-08-22T11:57:09.001Z,98897.55
2018-08-22T11:59:37.278Z,98899.21
2018-08-22T12:02:05.719Z,98891.68
2018-08-22T12:04:34.002Z,98889.89
2018-08-22T12:07:02.306Z,98892.23
2018-08-22T12:09:30.697Z,98885.89
2018-08-22T12:11:59.118Z,98877.60
2018-08-22T12:14:27.452Z,98870.09
2018-08-22T12:16:55.783Z,98865.92
2018-08-22T12:19:24.058Z,98870.69
2018-08-22T12:21:52.382Z,98873.11
2018-08-22T12:24:20.675Z,98866.16
2018-08-22T12:26:49.098Z,98867.50
2018-08-22T12:29:17.350Z,98865.64
2018-08-22T12:31:45.775Z,98858.94
2018-08-22T12:34:14.405Z,98857.17
2018-08-22T12:36:42.876Z,98850.30
2018-08-22T12:39:11.257Z,98852.36
2018-08-22T12:41:39.546Z,98851.73
2018-08-22T12:44:07.815Z,98843.50
2018-08-22T12:46:36.087Z,98842.14
2018-08-22T12:49:04.660Z,98838.38
2018-08-22T12:51:33.014Z,98833.61
2018-08-22T12:54:01.630Z,98830.77
2018-08-22T12:56:30.135Z,98823.48
2018-08-22T12:58:58.423Z,98825.11
2018-08-22T13:01:26.724Z,98818.27
2018-08-22T13:03:55.028Z,98816.62
2018-08-22T13:06:23.318Z,98815.73
2018-08-22T13:08:52.218Z,98810.59
2018-08-22T13:11:20.494Z,98811.48
2018-08-22T13:13:48.853Z,98809.43
2018-08-22T13:16:17.303Z,98816.09
2018-08-22T13:18:45.803Z,98811.47
2018-08-22T13:21:14.088Z,98805.59
2018-08-22T13:23:42.607Z,98805.99
2018-08-22T13:26:10.902Z,98808.45
2018-08-22T13:28:39.273Z,98799.29
2018-08-22T13:31:07.856Z,98795.60
2018-08-22T13:33:36.811Z,98784.61
2018-08-22T13:36:05.289Z,98791.55
2018-08-22T13:38:33.547Z,98784.13
2018-08-22T13:41:01.863Z,98779.86
2018-08-22T13:43:30.435Z,98777.78
2018-08-22T13:45:58.782Z,98775.91
2018-08-22T13:48:27.266Z,98774.23
2018-08-22T13:50:55.793Z,98773.30
2018-08-22T13:53:24.013Z,98767.81
2018-08-22T13:55:52.605Z,98761.88
2018-08-22T13:58:21.290Z,98767.28
2018-08-22T14:00:49.616Z,98761.88
2018-08-22T14:03:18.301Z,98758.69
2018-08-22T14:05:46.999Z,98757.63
2018-08-22T14:08:15.413Z,98753.42
2018-08-22T14:10:43.864Z,98763.97
2018-08-22T14:13:12.373Z,98759.67
2018-08-22T14:15:40.843Z,98756.02
2018-08-22T14:18:09.298Z,98754.37
2018-08-22T14:20:37.598Z,98747.33
2018-08-22T14:23:06.654Z,98739.62
2018-08-22T14:25:35.130Z,98752.69
2018-08-22T14:28:03.646Z,98744.88
2018-08-22T14:30:32.039Z,98744.19
2018-08-22T14:33:00.372Z,98740.78
2018-08-22T14:35:28.650Z,98737.88
2018-08-22T14:37:56.957Z,98736.19
2018-08-22T14:40:25.478Z,98733.34
2018-08-22T14:42:55.330Z,98734.00
2018-08-22T14:45:23.594Z,98730.89
2018-08-22T14:47:51.854Z,98726.92
2018-08-22T14:50:20.138Z,98728.72
2018-08-22T14:52:48.395Z,98725.04
2018-08-22T14:55:17.019Z,98724.89
2018-08-22T14:57:45.307Z,98722.67
2018-08-22T15:00:13.611Z,98716.75
2018-08-22T15:02:42.248Z,98711.39
2018-08-22T15:05:10.400Z,98712.95
2018-08-22T15:07:38.865Z,98715.40
2018-08-22T15:10:07.904Z,98716.92
2018-08-22T15:12:36.226Z,98711.13
2018-08-22T15:15:04.750Z,98707.66
2018-08-22T15:17:33.165Z,98711.63
2018-08-22T15:20:01.472Z,98711.03
2018-08-22T15:22:29.811Z,98698.37
2018-08-22T15:24:58.057Z,98696.19
2018-08-22T15:27:26.470Z,98695.61
2018-08-22T15:29:54.756Z,98694.27
2018-08-22T15:32:23.107Z,98695.36
2018-08-22T15:34:53.974Z,98684.13
2018-08-22T15:37:22.930Z,98681.61
2018-08-22T15:39:51.238Z,98679.02
2018-08-22T15:42:19.762Z,98681.20
2018-08-22T15:44:48.107Z,98682.15
2018-08-22T15:47:16.473Z,98684.88
2018-08-22T15:49:45.774Z,98679.28
2018-08-22T15:52:14.283Z,98676.14
2018-08-22T15:54:42.588Z,98672.89
2018-08-22T15:57:10.895Z,98672.02
2018-08-22T15:59:39.381Z,98670.30
2018-08-22T16:02:07.696Z,98672.53
2018-08-22T16:05:00.576Z,98671.92
2018-08-22T16:07:28.905Z,98668.63
2018-08-22T16:09:57.263Z,98660.00
2018-08-22T16:12:25.588Z,98661.50
2018-08-22T16:14:53.925Z,98656.55
2018-08-22T16:17:22.355Z,98648.97
2018-08-22T16:19:50.778Z,98647.91
2018-08-22T16:22:19.059Z,98648.72
2018-08-22T16:24:47.389Z,98647.55
2018-08-22T16:27:15.909Z,98651.44
2018-08-22T16:29:44.283Z,98648.83
2018-08-22T16:32:12.623Z,98653.59
2018-08-22T16:34:40.945Z,98650.60
2018-08-22T16:37:09.672Z,98649.32
2018-08-22T16:39:42.654Z,98644.56
2018-08-22T16:42:11.334Z,98645.20
2018-08-22T16:44:40.023Z,98643.53
2018-08-22T16:47:08.427Z,98644.64
2018-08-22T16:49:37.039Z,98646.56
2018-08-22T16:52:05.556Z,98640.48
2018-08-22T16:54:33.944Z,98640.80
2018-08-22T16:57:02.749Z,98633.80
2018-08-22T16:59:31.112Z,98643.14
2018-08-22T17:01:59.610Z,98641.23
2018-08-22T17:04:27.984Z,98643.51
2018-08-22T17:06:58.256Z,98639.39
2018-08-22T17:09:27.550Z,98637.58
2018-08-22T17:11:55.820Z,98637.30
2018-08-22T17:14:24.188Z,98637.51
2018-08-22T17:16:52.471Z,98641.69
2018-08-22T17:19:20.808Z,98634.16
2018-08-22T17:21:49.099Z,98632.37
2018-08-22T17:24:17.418Z,98632.62
2018-08-22T17:26:45.676Z,98627.03
2018-08-22T17:29:14.332Z,98633.72
2018-08-22T17:31:45.016Z,98635.77
2018-08-22T17:34:13.503Z,98630.94
2018-08-22T17:36:41.955Z,98631.30
2018-08-22T17:39:10.427Z,98633.30
2018-08-22T17:41:38.724Z,98631.39
2018-08-22T17:44:09.100Z,98634.89
2018-08-22T17:46:40.537Z,98633.32
2018-08-22T17:49:08.923Z,98634.59
2018-08-22T17:52:11.554Z,98637.58
2018-08-22T17:54:40.071Z,98639.77
2018-08-22T17:57:14.874Z,98633.14
2018-08-22T17:59:44.075Z,98642.16
2018-08-22T18:02:34.971Z,98642.80
2018-08-22T18:05:04.295Z,98640.03
2018-08-22T18:07:32.773Z,98639.48
2018-08-22T18:10:04.432Z,98638.15
2018-08-22T18:12:37.558Z,98641.88
2018-08-22T18:15:05.914Z,98644.30
2018-08-22T18:17:34.670Z,98646.48
2018-08-22T18:20:02.955Z,98643.77
2018-08-22T18:22:35.380Z,98644.59
2018-08-22T18:25:03.751Z,98653.61
2018-08-22T18:27:32.327Z,98659.69
2018-08-22T18:30:00.634Z,98655.88
2018-08-22T18:32:28.970Z,98660.20
2018-08-22T18:35:08.616Z,98655.14
2018-08-22T18:37:36.985Z,98654.20
2018-08-22T18:40:24.162Z,98658.42
2018-08-22T18:42:55.658Z,98657.40
2018-08-22T18:46:33.196Z,98661.45
2018-08-22T18:49:02.595Z,98665.70
2018-08-22T18:51:30.953Z,98664.59
2018-08-22T18:53:59.600Z,98660.50
2018-08-22T18:56:28.238Z,98666.38
2018-08-22T18:58:56.902Z,98665.34
2018-08-22T19:01:25.574Z,98669.28
2018-08-22T19:03:56.207Z,98670.13
2018-08-22T19:06:24.542Z,98666.77
2018-08-22T19:08:52.795Z,98670.59
2018-08-22T19:11:21.066Z,98671.88
2018-08-22T19:13:49.406Z,98673.81
2018-08-22T19:16:17.689Z,98674.98
2018-08-22T19:18:45.985Z,98676.83
2018-08-22T19:21:14.983Z,98675.73
2018-08-22T19:23:44.980Z,98678.55
2018-08-22T19:26:13.826Z,98680.46
2018-08-22T19:28:54.324Z,98674.63
2018-08-22T19:31:22.608Z,98679.54
2018-08-22T19:33:51.101Z,98672.74
2018-08-22T19:36:19.859Z,98676.55
2018-08-22T19:38:48.151Z,98674.27
2018-08-22T19:41:23.772Z,98676.58
2018-08-22T19:43:52.399Z,98675.30
2018-08-22T19:46:20.904Z,98678.77
2018-08-22T19:48:49.265Z,98678.14
2018-08-22T19:51:17.870Z,98682.96
2018-08-22T19:54:05.318Z,98678.25
2018-08-22T19:56:34.555Z,98680.54
2018-08-22T19:59:03.603Z,98677.53
2018-08-22T20:01:33.595Z,98685.75
2018-08-22T20:04:01.974Z,98679.99
2018-08-22T20:06:30.699Z,98683.70
2018-08-22T20:09:00.036Z,98683.70
2018-08-22T20:11:28.627Z,98681.61
2018-08-22T20:14:02.094Z,98676.73
2018-08-22T20:16:30.458Z,98683.28
2018-08-22T20:19:00.869Z,98679.59
2018-08-22T20:21:30.938Z,98683.14
2018-08-22T20:23:59.828Z,98687.27
2018-08-22T20:26:28.707Z,98684.55
2018-08-22T20:29:01.771Z,98685.80
2018-08-22T20:31:30.342Z,98689.45
2018-08-22T20:34:04.514Z,98686.05
2018-08-22T20:36:33.028Z,98692.83
2018-08-22T20:39:05.894Z,98695.17
2018-08-22T20:41:34.677Z,98694.77
2018-08-22T20:44:03.433Z,98692.63
2018-08-22T20:46:32.146Z,98697.91
2018-08-22T20:49:01.001Z,98691.15
2018-08-22T20:51:30.633Z,98706.66
2018-08-22T20:54:04.532Z,98705.34
2018-08-22T20:56:32.898Z,98700.04
2018-08-22T20:59:01.315Z,98703.44
2018-08-22T21:01:29.771Z,98707.20
2018-08-22T21:03:58.098Z,98700.20
2018-08-22T21:06:26.559Z,98697.81
2018-08-22T21:08:55.039Z,98700.47
2018-08-22T21:11:23.408Z,98696.89
2018-08-22T21:13:51.897Z,98692.86
2018-08-22T21:16:20.449Z,98700.62
2018-08-22T21:18:48.732Z,98696.58
2018-08-22T21:21:31.494Z,98695.14
2018-08-22T21:24:05.954Z,98694.06
2018-08-22T21:26:59.990Z,98689.20
2018-08-22T21:29:39.995Z,98695.42
2018-08-22T21:34:54.508Z,98690.94
2018-08-22T21:37:28.879Z,98689.76
2018-08-22T21:39:59.451Z,98691.31
2018-08-22T21:42:38.292Z,98690.39
2018-08-22T21:45:17.354Z,98697.74
2018-08-22T21:47:53.326Z,98695.10
2018-08-22T21:50:42.738Z,98691.44
2018-08-22T21:53:18.787Z,98696.41
2018-08-22T21:55:52.228Z,98689.35
2018-08-22T21:58:21.600Z,98683.87
2018-08-22T22:00:53.272Z,98689.47
2018-08-22T22:03:29.429Z,98684.20
2018-08-22T22:06:02.708Z,98678.91
2018-08-22T22:08:38.764Z,98674.62
2018-08-22T22:11:25.995Z,98676.86
2018-08-22T22:14:08.773Z,98680.67
2018-08-22T22:19:18.869Z,98682.39
2018-08-22T22:21:52.428Z,98680.31
2018-08-22T22:24:29.605Z,98677.11
2018-08-22T22:27:11.772Z,98672.86
2018-08-22T22:29:49.389Z,98677.04
2018-08-22T22:32:18.762Z,98675.58
2018-08-22T22:34:54.524Z,98670.00
2018-08-22T22:40:37.601Z,98666.59
2018-08-22T22:43:17.867Z,98670.65
2018-08-22T22:48:54.145Z,98669.81
2018-08-22T22:51:23.653Z,98668.39
2018-08-22T22:53:55.720Z,98671.67
2018-08-22T22:56:27.625Z,98665.89
2018-08-22T22:58:57.006Z,98669.11
2018-08-22T23:01:26.176Z,98664.68
2018-08-22T23:04:08.849Z,98665.84
2018-08-22T23:06:46.971Z,98664.88
2018-08-22T23:09:20.227Z,98667.69
2018-08-22T23:12:05.814Z,98667.11
2018-08-22T23:14:42.349Z,98665.91
2018-08-22T23:17:15.355Z,98663.36
2018-08-22T23:19:44.267Z,98664.52
2018-08-22T23:22:19.753Z,98663.03
2018-08-22T23:24:59.147Z,98658.25
2018-08-22T23:27:34.421Z,98656.53
2018-08-22T23:33:02.066Z,98659.70
2018-08-22T23:35:32.645Z,98658.80
2018-08-22T23:38:03.073Z,98654.29
2018-08-22T23:40:32.608Z,98647.71
2018-08-22T23:43:00.960Z,98641.95
2018-08-22T23:45:29.461Z,98650.41
2018-08-22T23:47:57.809Z,98650.35
2018-08-22T23:50:38.570Z,98649.03
2018-08-22T23:53:06.875Z,98644.00
2018-08-22T23:55:35.173Z,98639.23
2018-08-22T23:58:03.491Z,98633.73
